Voyager — C6WC2 — position and weather

sailwx.info

Track history (hours):
 
Tides and Currents Weather Stations Pressure Air Temp Water Temp Dewpoint Dewpoint Depression Visibility Wind Speed Wind Dir Waves Ship Positions

Voyager

Last reported at 2015-Jul-04 17:30 UTC. Time now 2015-Jul-05 20:59 UTC.
Position N 69°36' E 018°53'.

Length 151 m; draft 6 m.

Type: Passenger vessel. MMSI: 309695000.

Date/timePositionNaut miles runAvg speedWind from/ knotsBaromVisibWave heightAir tempDewpointWater temp
2015-Jul-04 17:30N 69°36' E 018°53'3 3.1
2015-Jul-04 16:29N 69°39' E 018°58'0 0.0
2015-Jul-04 15:32N 69°39' E 018°58'0 0.0
2015-Jul-04 14:29N 69°39' E 018°58'0 0.0
2015-Jul-04 13:26N 69°39' E 018°58'0 0.0
2015-Jul-04 12:32N 69°39' E 018°58'0 0.2
2015-Jul-04 11:33N 69°39' E 018°58'6 4.4
2015-Jul-04 10:16N 69°44' E 019°02'2 0.1
2015-Jul-03 02:21N 69°46' E 019°05'1012.8
2015-Jul-03 01:33N 69°36' E 018°52'12914.2
2015-Jul-02 16:30N 68°05' E 014°42'1616.9
2015-Jul-02 15:33N 68°03' E 013°59'  
2015-Jun-28 07:14N 54°06' E 003°50'6114.7
2015-Jun-28 03:05N 53°17' E 002°49'917.4
2015-Jun-28 02:33N 53°09' E 002°41'1717.4
2015-Jun-28 01:33N 52°52' E 002°38'1818.5
2015-Jun-28 00:33N 52°33' E 002°38'1918.8
2015-Jun-27 23:33N 52°14' E 002°36'1818.6
2015-Jun-27 22:33N 51°56' E 002°33'1716.7
2015-Jun-27 21:33N 51°41' E 002°44'1717.2
2015-Jun-27 20:33N 51°24' E 002°44'1212.1
2015-Jun-27 19:34N 51°14' E 002°56'0 0.0
2015-Jun-27 18:33N 51°14' E 002°56'0 0.0
2015-Jun-27 17:33N 51°14' E 002°56'0 0.0
2015-Jun-27 16:33N 51°14' E 002°56'4 3.8
2015-Jun-27 15:33N 51°17' E 002°52'1110.6
2015-Jun-27 14:33N 51°22' E 002°37'8 8.4
2015-Jun-27 13:33N 51°20' E 002°24'1211.8
2015-Jun-27 12:33N 51°22' E 002°05'1616.3
2015-Jun-27 11:33N 51°35' E 001°50'1615.9
2015-Jun-27 10:33N 51°50' E 001°41'1413.7
2015-Jun-27 09:34N 51°55' E 001°21'4 3.5
2015-Jun-27 08:32N 51°57' E 001°15'0 0.0
2015-Jun-27 07:32N 51°57' E 001°15'0 0.0
2015-Jun-27 06:32N 51°57' E 001°15'0 0.0
2015-Jun-27 05:32N 51°57' E 001°15'0 0.0
2015-Jun-27 04:32N 51°57' E 001°15'3 2.6
2015-Jun-27 03:33N 51°56' E 001°19'1010.1
2015-Jun-27 02:33N 51°58' E 001°35'8 8.0
2015-Jun-27 01:33N 52°04' E 001°43'1010.3
2015-Jun-27 00:33N 52°12' E 001°55'1010.3
2015-Jun-26 23:33N 52°19' E 002°07'1110.2
2015-Jun-26 22:30N 52°27' E 002°19'4310.1
2015-Jun-26 18:17N 53°07' E 002°40'1010.8
2015-Jun-26 17:22N 53°17' E 002°45'1310.9
2015-Jun-26 16:10N 53°29' E 002°53'711.4
2015-Jun-26 15:33N 53°35' E 002°58'1411.0
2015-Jun-26 14:15N 53°48' E 003°08'811.2
2015-Jun-26 13:33N 53°55' E 003°15'1210.5
2015-Jun-26 12:22N 53°60' E 003°35'9 9.7
2015-Jun-26 11:29N 54°02' E 003°49'1011.2
2015-Jun-26 10:33N 54°12' E 003°52'  
Track history (hours):
 
Tides and Currents Weather Stations Pressure Air Temp Water Temp Dewpoint Dewpoint Depression Visibility Wind Speed Wind Dir Waves Ship Positions

Voyager

Last reported at 2015-Jul-04 17:30 UTC. Time now 2015-Jul-05 20:59 UTC.
Position N 69°36' E 018°53'.

Length 151 m; draft 6 m.

Type: Passenger vessel. MMSI: 309695000.

Date/timePositionNaut miles runAvg speedWind from/ knotsBaromVisibWave heightAir tempDewpointWater temp
2015-Jul-04 17:30N 69°36' E 018°53'3 3.1
2015-Jul-04 16:29N 69°39' E 018°58'0 0.0
2015-Jul-04 15:32N 69°39' E 018°58'0 0.0
2015-Jul-04 14:29N 69°39' E 018°58'0 0.0
2015-Jul-04 13:26N 69°39' E 018°58'0 0.0
2015-Jul-04 12:32N 69°39' E 018°58'0 0.2
2015-Jul-04 11:33N 69°39' E 018°58'6 4.4
2015-Jul-04 10:16N 69°44' E 019°02'2 0.1
2015-Jul-03 02:21N 69°46' E 019°05'1012.8
2015-Jul-03 01:33N 69°36' E 018°52'12914.2
2015-Jul-02 16:30N 68°05' E 014°42'1616.9
2015-Jul-02 15:33N 68°03' E 013°59'  
2015-Jun-28 07:14N 54°06' E 003°50'6114.7
2015-Jun-28 03:05N 53°17' E 002°49'917.4
2015-Jun-28 02:33N 53°09' E 002°41'1717.4
2015-Jun-28 01:33N 52°52' E 002°38'1818.5
2015-Jun-28 00:33N 52°33' E 002°38'1918.8
2015-Jun-27 23:33N 52°14' E 002°36'1818.6
2015-Jun-27 22:33N 51°56' E 002°33'1716.7
2015-Jun-27 21:33N 51°41' E 002°44'1717.2
2015-Jun-27 20:33N 51°24' E 002°44'1212.1
2015-Jun-27 19:34N 51°14' E 002°56'0 0.0
2015-Jun-27 18:33N 51°14' E 002°56'0 0.0
2015-Jun-27 17:33N 51°14' E 002°56'0 0.0
2015-Jun-27 16:33N 51°14' E 002°56'4 3.8
2015-Jun-27 15:33N 51°17' E 002°52'1110.6
2015-Jun-27 14:33N 51°22' E 002°37'8 8.4
2015-Jun-27 13:33N 51°20' E 002°24'1211.8
2015-Jun-27 12:33N 51°22' E 002°05'1616.3
2015-Jun-27 11:33N 51°35' E 001°50'1615.9
2015-Jun-27 10:33N 51°50' E 001°41'1413.7
2015-Jun-27 09:34N 51°55' E 001°21'4 3.5
2015-Jun-27 08:32N 51°57' E 001°15'0 0.0
2015-Jun-27 07:32N 51°57' E 001°15'0 0.0
2015-Jun-27 06:32N 51°57' E 001°15'0 0.0
2015-Jun-27 05:32N 51°57' E 001°15'0 0.0
2015-Jun-27 04:32N 51°57' E 001°15'3 2.6
2015-Jun-27 03:33N 51°56' E 001°19'1010.1
2015-Jun-27 02:33N 51°58' E 001°35'8 8.0
2015-Jun-27 01:33N 52°04' E 001°43'1010.3
2015-Jun-27 00:33N 52°12' E 001°55'1010.3
2015-Jun-26 23:33N 52°19' E 002°07'1110.2
2015-Jun-26 22:30N 52°27' E 002°19'4310.1
2015-Jun-26 18:17N 53°07' E 002°40'1010.8
2015-Jun-26 17:22N 53°17' E 002°45'1310.9
2015-Jun-26 16:10N 53°29' E 002°53'711.4
2015-Jun-26 15:33N 53°35' E 002°58'1411.0
2015-Jun-26 14:15N 53°48' E 003°08'811.2
2015-Jun-26 13:33N 53°55' E 003°15'1210.5
2015-Jun-26 12:22N 53°60' E 003°35'9 9.7
2015-Jun-26 11:29N 54°02' E 003°49'1011.2
2015-Jun-26 10:33N 54°12' E 003°52'  

Dump ship's entire track history